VCBI/CMB METAR and TAF weather

Enter ICAO airport designator
Station Type Date Time Source
VCBI METAR 2021/05/14 23:10 UTC NOAA

VCBI 142310Z 12004KT 9999 SCT014 25/24 Q1007 NOSIG


Station Type Date Time Source
VCBI Decoded METAR 2021/05/14 23:10 UTC NOAA

Katunayake, Sri Lanka (VCBI) 07-10N 079-53E 8M
May 14, 2021 - 07:10 PM EDT / 2021.05.14 2310 UTC
Wind: from the ESE (120 degrees) at 5 MPH (4 KT):0
Visibility: greater than 7 mile(s):0
Sky conditions: partly cloudy
Temperature: 77 F (25 C)
Dew Point: 75 F (24 C)
Relative Humidity: 94%
Pressure (altimeter): 29.74 in. Hg (1007 hPa)
ob: VCBI 142310Z 12004KT 9999 SCT014 25/24 Q1007 NOSIG
cycle: 23

Station Type Date Time Source
VCBI TAF 2021/05/14 18:12 UTC NOAA

TAF TAF VCBI 141700Z 1418/1524 25008G20KT 9999 SCT015 FEW020CB TX30/1507Z TN23/1500Z PROB30
TEMPO 1503/1508 7000 -TSRA/SHRA SCT015 FEW020CB

Example: see airport list